Time;durP1;ratioP1;P1;durP2;ratioP2;P2;SDS_P1;SDS_P2;PMS_P1;PMS_P2;Temp;Humidity;BMP_temperature;BMP_pressure;BME280_temperature;BME280_humidity;BME280_pressure;Samples;Min_cycle;Max_cycle;Signal;HPM_P1;HPM_P2
2022/03/26 07:01:29;;;;;;;67.75;34.05;;;;;;;;;;5476850;23;20039;-90
2022/03/26 07:03:56;;;;;;;65.25;34.53;;;;;;;;;;4950454;28;20078;-91
2022/03/26 07:06:23;;;;;;;66.40;34.78;;;;;;;;;;4951171;28;20086;-91
2022/03/26 07:08:49;;;;;;;70.40;34.75;;;;;;;;;;4952456;28;20419;-91
2022/03/26 07:11:16;;;;;;;66.03;32.67;;;;;;;;;;4950083;28;20467;-90
2022/03/26 07:13:43;;;;;;;69.03;34.55;;;;;;;;;;4957401;28;20070;-91
2022/03/26 07:16:09;;;;;;;68.65;34.28;;;;;;;;;;4949288;28;20071;-88
2022/03/26 07:18:36;;;;;;;66.55;33.63;;;;;;;;;;4950871;28;20403;-90
2022/03/26 07:21:02;;;;;;;68.15;34.05;;;;;;;;;;4947525;28;20515;-90
2022/03/26 07:23:29;;;;;;;70.13;34.47;;;;;;;;;;4939924;28;20069;-90
2022/03/26 07:25:56;;;;;;;67.75;33.53;;;;;;;;;;4943000;28;20059;-90
2022/03/26 07:28:23;;;;;;;64.65;32.97;;;;;;;;;;4948239;28;20098;-89
2022/03/26 07:30:50;;;;;;;65.05;34.13;;;;;;;;;;4946765;28;20408;-88
2022/03/26 07:33:16;;;;;;;65.95;34.30;;;;;;;;;;4944499;28;20079;-89
2022/03/26 07:35:44;;;;;;;59.10;34.15;;;;;;;;;;4946908;28;20090;-88
2022/03/26 07:38:12;;;;;;;64.72;34.58;;;;;;;;;;4948247;28;20047;-90
2022/03/26 07:40:38;;;;;;;66.05;34.75;;;;;;;;;;4949230;28;20472;-88
2022/03/26 07:43:07;;;;;;;68.05;34.97;;;;;;;;;;4946995;28;20106;-88
2022/03/26 07:45:34;;;;;;;69.55;35.30;;;;;;;;;;4947122;28;20083;-90
2022/03/26 07:48:01;;;;;;;57.97;33.72;;;;;;;;;;4948766;28;20074;-90
2022/03/26 07:50:28;;;;;;;62.17;34.33;;;;;;;;;;4949074;28;20058;-89
2022/03/26 07:52:54;;;;;;;59.08;32.53;;;;;;;;;;4949631;28;20074;-90
2022/03/26 07:55:21;;;;;;;65.60;34.22;;;;;;;;;;4949816;28;20067;-90
2022/03/26 07:57:47;;;;;;;61.38;34.20;;;;;;;;;;4949855;28;20083;-90
2022/03/26 08:00:14;;;;;;;61.75;33.75;;;;;;;;;;4948892;28;20082;-89
2022/03/26 08:02:41;;;;;;;65.95;34.05;;;;;;;;;;4952743;28;20570;-89
2022/03/26 08:05:08;;;;;;;61.53;34.47;;;;;;;;;;4951018;28;20047;-90
2022/03/26 08:07:34;;;;;;;68.57;34.30;;;;;;;;;;4953040;28;20511;-89
2022/03/26 08:10:01;;;;;;;62.22;33.40;;;;;;;;;;4951912;28;20106;-89
2022/03/26 08:12:28;;;;;;;60.65;32.80;;;;;;;;;;4957124;28;20051;-92
2022/03/26 08:14:54;;;;;;;64.88;33.72;;;;;;;;;;4955259;28;20093;-91
2022/03/26 08:17:21;;;;;;;67.50;34.92;;;;;;;;;;4947375;28;20409;-89
2022/03/26 08:19:49;;;;;;;57.60;33.85;;;;;;;;;;4942262;28;20078;-89
2022/03/26 08:22:15;;;;;;;65.95;35.42;;;;;;;;;;4948658;28;20392;-89
2022/03/26 08:24:42;;;;;;;64.68;34.35;;;;;;;;;;4945072;28;20134;-89
2022/03/26 08:27:09;;;;;;;67.30;35.17;;;;;;;;;;4947050;28;20555;-89
2022/03/26 08:29:35;;;;;;;62.08;35.10;;;;;;;;;;4949431;28;20104;-89
2022/03/26 08:32:04;;;;;;;69.47;35.83;;;;;;;;;;4946971;28;20048;-90
2022/03/26 08:34:31;;;;;;;64.40;36.13;;;;;;;;;;4944164;28;20066;-90
2022/03/26 08:36:58;;;;;;;66.55;36.63;;;;;;;;;;4945196;28;20044;-91
2022/03/26 08:39:24;;;;;;;67.82;36.50;;;;;;;;;;4952460;28;20047;-91
2022/03/26 08:41:51;;;;;;;64.85;35.67;;;;;;;;;;4953547;28;20075;-92
2022/03/26 08:44:17;;;;;;;62.28;35.22;;;;;;;;;;4953211;28;20480;-92
2022/03/26 08:46:44;;;;;;;61.72;34.80;;;;;;;;;;4957356;28;20055;-90
2022/03/26 08:49:11;;;;;;;65.65;36.05;;;;;;;;;;4948237;28;20047;-90
2022/03/26 08:51:37;;;;;;;66.07;37.60;;;;;;;;;;4954422;28;20456;-91
2022/03/26 08:54:04;;;;;;;67.80;36.85;;;;;;;;;;4948184;28;20079;-87
2022/03/26 08:56:31;;;;;;;65.55;35.85;;;;;;;;;;4954644;28;20046;-91
2022/03/26 08:58:57;;;;;;;65.20;36.75;;;;;;;;;;4953725;28;20051;-92
2022/03/26 09:01:24;;;;;;;61.97;35.63;;;;;;;;;;4951359;28;20075;-90
2022/03/26 09:03:51;;;;;;;64.22;35.15;;;;;;;;;;4956168;28;20059;-91
2022/03/26 09:06:18;;;;;;;70.28;37.33;;;;;;;;;;4962211;28;20051;-92
2022/03/26 09:08:45;;;;;;;60.60;35.53;;;;;;;;;;4954635;28;20078;-92
2022/03/26 09:11:12;;;;;;;63.65;35.75;;;;;;;;;;4950754;28;20063;-91
2022/03/26 09:13:39;;;;;;;65.05;36.20;;;;;;;;;;4960285;28;20056;-91
2022/03/26 09:16:06;;;;;;;66.82;36.25;;;;;;;;;;4950573;28;20099;-87
2022/03/26 09:18:33;;;;;;;66.40;36.83;;;;;;;;;;4951568;28;20082;-89
2022/03/26 09:20:59;;;;;;;67.53;37.38;;;;;;;;;;4952936;28;20051;-89
2022/03/26 09:23:31;;;;;;;63.45;35.40;;;;;;;;;;4953522;28;20461;-90
2022/03/26 09:25:59;;;;;;;65.78;38.70;;;;;;;;;;4954971;28;20149;-89
2022/03/26 09:28:27;;;;;;;65.45;36.80;;;;;;;;;;4950635;28;20110;-89
2022/03/26 09:30:53;;;;;;;64.95;36.17;;;;;;;;;;4944107;28;20114;-87
2022/03/26 09:33:21;;;;;;;56.65;33.95;;;;;;;;;;4928875;28;20077;-89
2022/03/26 09:35:48;;;;;;;61.03;34.45;;;;;;;;;;4940165;28;20051;-89
2022/03/26 09:38:15;;;;;;;63.75;35.75;;;;;;;;;;4945181;28;20129;-90
2022/03/26 09:40:44;;;;;;;63.78;35.88;;;;;;;;;;4947255;28;20055;-90
2022/03/26 09:43:14;;;;;;;60.42;35.15;;;;;;;;;;4947547;28;20068;-91
2022/03/26 09:45:41;;;;;;;59.83;33.58;;;;;;;;;;4947824;28;20047;-90
2022/03/26 09:48:07;;;;;;;65.45;37.17;;;;;;;;;;4947368;28;20054;-90
2022/03/26 09:50:35;;;;;;;60.10;35.22;;;;;;;;;;4945355;28;20079;-91
2022/03/26 09:53:02;;;;;;;68.35;36.05;;;;;;;;;;4948258;28;20055;-93
2022/03/26 09:55:32;;;;;;;60.85;36.53;;;;;;;;;;4952701;28;20665;-93
2022/03/26 09:58:01;;;;;;;63.13;36.65;;;;;;;;;;4944680;28;20075;-91
2022/03/26 10:00:28;;;;;;;;;;;;;;;;;;4947892;28;20065;-91
2022/03/26 10:02:54;;;;;;;58.35;33.42;;;;;;;;;;4951659;28;19933;-91
2022/03/26 10:05:30;;;;;;;59.83;33.35;;;;;;;;;;4942253;28;20162;-90
2022/03/26 10:07:58;;;;;;;58.85;34.67;;;;;;;;;;4948913;28;20478;-91
2022/03/26 10:10:25;;;;;;;62.15;34.35;;;;;;;;;;4946732;28;20900;-91
2022/03/26 10:12:52;;;;;;;60.30;34.10;;;;;;;;;;4948325;28;20069;-90
2022/03/26 10:15:19;;;;;;;59.13;34.08;;;;;;;;;;4953462;28;20055;-91
2022/03/26 10:17:46;;;;;;;60.58;34.47;;;;;;;;;;4944500;28;20052;-91
2022/03/26 10:20:15;;;;;;;61.03;34.40;;;;;;;;;;4943887;28;20496;-92
2022/03/26 10:22:45;;;;;;;48.83;31.88;;;;;;;;;;4942647;28;20046;-90
2022/03/26 10:25:16;;;;;;;56.10;33.20;;;;;;;;;;4941959;28;20397;-86
2022/03/26 10:27:44;;;;;;;57.78;33.38;;;;;;;;;;4948575;28;20081;-88
2022/03/26 10:32:39;;;;;;;54.90;32.47;;;;;;;;;;4930208;28;20043;-87
2022/03/26 10:33:20;;;;;;;60.70;32.53;;;;;;;;;;4937166;28;20054;-87
2022/03/26 10:35:54;;;;;;;58.47;32.25;;;;;;;;;;4938178;28;20102;-85
2022/03/26 10:38:31;;;;;;;62.15;32.75;;;;;;;;;;4945969;28;20066;-89
2022/03/26 10:41:06;;;;;;;52.90;31.70;;;;;;;;;;4952277;28;20058;-91
2022/03/26 10:43:34;;;;;;;55.85;32.38;;;;;;;;;;4939624;28;20098;-90
2022/03/26 10:46:01;;;;;;;54.95;32.05;;;;;;;;;;4949771;28;21056;-89
2022/03/26 10:48:30;;;;;;;51.58;31.88;;;;;;;;;;4947755;28;20062;-89
2022/03/26 10:50:59;;;;;;;57.72;31.50;;;;;;;;;;4947989;28;20134;-88
2022/03/26 10:53:40;;;;;;;52.13;31.88;;;;;;;;;;4950052;28;20055;-91
2022/03/26 10:56:10;;;;;;;55.38;32.50;;;;;;;;;;4946164;28;20048;-89
2022/03/26 10:58:38;;;;;;;52.33;30.75;;;;;;;;;;4949162;28;20063;-88
2022/03/26 11:01:05;;;;;;;54.28;31.13;;;;;;;;;;4947106;28;20110;-89
2022/03/26 11:03:34;;;;;;;54.05;31.05;;;;;;;;;;4944870;28;20098;-90
2022/03/26 11:06:01;;;;;;;;;;;;;;;;;;4944966;28;20594;-90
2022/03/26 11:08:34;;;;;;;54.50;31.88;;;;;;;;;;4945916;28;20453;-91
2022/03/26 11:11:10;;;;;;;59.58;31.40;;;;;;;;;;4945658;28;20051;-91
2022/03/26 11:13:51;;;;;;;58.00;32.50;;;;;;;;;;4949239;28;20347;-90
2022/03/26 11:16:39;;;;;;;62.50;30.88;;;;;;;;;;4947367;28;20059;-90
2022/03/26 11:19:24;;;;;;;58.17;31.90;;;;;;;;;;4945504;28;20130;-91
2022/03/26 11:22:03;;;;;;;54.22;30.00;;;;;;;;;;4947035;28;20126;-92
2022/03/26 11:24:54;;;;;;;57.25;31.98;;;;;;;;;;4944112;28;20126;-91
2022/03/26 11:27:39;;;;;;;51.45;31.75;;;;;;;;;;4947268;28;20078;-90
2022/03/26 11:30:18;;;;;;;53.88;31.25;;;;;;;;;;4944443;28;20524;-91
2022/03/26 11:32:49;;;;;;;51.80;30.23;;;;;;;;;;4947926;28;20059;-90
2022/03/26 11:35:17;;;;;;;54.50;31.60;;;;;;;;;;4946221;28;20055;-89
2022/03/26 11:37:58;;;;;;;60.17;32.75;;;;;;;;;;4949720;28;20130;-90
2022/03/26 11:40:48;;;;;;;53.90;30.45;;;;;;;;;;4949532;28;20051;-93
2022/03/26 11:43:19;;;;;;;59.20;32.35;;;;;;;;;;4950992;28;20079;-94
2022/03/26 11:51:22;;;;;;;53.38;31.90;;;;;;;;;;4945529;28;20051;-94
2022/03/26 11:54:05;;;;;;;55.03;32.22;;;;;;;;;;4956618;28;20051;-93
2022/03/26 11:56:33;;;;;;;52.10;30.92;;;;;;;;;;4948912;28;20067;-90
2022/03/26 11:59:05;;;;;;;53.05;31.20;;;;;;;;;;4950201;28;20091;-91
2022/03/26 12:01:37;;;;;;;50.50;31.50;;;;;;;;;;4940415;28;20051;-91
2022/03/26 12:04:16;;;;;;;54.47;30.70;;;;;;;;;;4948668;28;20051;-87
2022/03/26 12:06:49;;;;;;;55.50;32.03;;;;;;;;;;4942685;28;20067;-90
2022/03/26 12:09:30;;;;;;;47.42;30.80;;;;;;;;;;4943183;28;20047;-88
2022/03/26 12:12:06;;;;;;;49.40;30.63;;;;;;;;;;4946420;28;20067;-88
2022/03/26 12:14:33;;;;;;;51.50;30.75;;;;;;;;;;4950077;28;20188;-89
2022/03/26 12:17:00;;;;;;;50.88;29.30;;;;;;;;;;4948523;28;20067;-87
2022/03/26 12:19:37;;;;;;;50.60;30.92;;;;;;;;;;4952005;28;20066;-88
2022/03/26 12:22:23;;;;;;;46.42;30.88;;;;;;;;;;4950307;28;20052;-85
2022/03/26 12:24:53;;;;;;;55.72;30.75;;;;;;;;;;4946798;28;20131;-89
2022/03/26 12:27:20;;;;;;;61.15;32.45;;;;;;;;;;4949409;28;20067;-88
2022/03/26 12:29:47;;;;;;;54.78;31.20;;;;;;;;;;4950203;28;20044;-88
2022/03/26 12:32:14;;;;;;;50.28;29.60;;;;;;;;;;4944880;28;20111;-88
2022/03/26 12:34:58;;;;;;;55.90;30.13;;;;;;;;;;4949536;28;20078;-89
2022/03/26 12:37:26;;;;;;;51.72;30.52;;;;;;;;;;4947463;28;20043;-88
2022/03/26 12:39:52;;;;;;;49.35;28.73;;;;;;;;;;4948052;28;20075;-90
2022/03/26 12:42:20;;;;;;;52.22;30.20;;;;;;;;;;4948943;28;20043;-88
2022/03/26 12:44:47;;;;;;;54.78;30.02;;;;;;;;;;4950128;28;20047;-91
2022/03/26 12:47:27;;;;;;;51.40;30.02;;;;;;;;;;4952263;28;20070;-90
2022/03/26 12:49:58;;;;;;;52.88;31.45;;;;;;;;;;4950970;28;20110;-89
2022/03/26 12:52:25;;;;;;;52.53;31.35;;;;;;;;;;4956541;28;20483;-89
2022/03/26 12:54:56;;;;;;;54.22;29.58;;;;;;;;;;4947324;28;20070;-89
2022/03/26 12:57:24;;;;;;;48.13;29.13;;;;;;;;;;4956908;28;20051;-88
2022/03/26 12:59:54;;;;;;;49.83;29.13;;;;;;;;;;4954701;28;20043;-88
2022/03/26 13:02:21;;;;;;;49.47;28.98;;;;;;;;;;4950912;28;20051;-88
2022/03/26 13:04:52;;;;;;;56.42;30.73;;;;;;;;;;4954536;28;20139;-89
2022/03/26 13:07:20;;;;;;;47.83;28.90;;;;;;;;;;4951086;28;20095;-90
2022/03/26 13:09:54;;;;;;;53.80;29.90;;;;;;;;;;4951787;28;20055;-90
2022/03/26 13:12:29;;;;;;;51.10;29.00;;;;;;;;;;4959387;28;20047;-90
2022/03/26 13:14:56;;;;;;;58.08;30.92;;;;;;;;;;4951111;28;20047;-87
2022/03/26 13:17:24;;;;;;;47.10;29.30;;;;;;;;;;4947908;28;20118;-88
2022/03/26 13:20:00;;;;;;;52.33;28.92;;;;;;;;;;4951379;28;20055;-90
2022/03/26 13:22:30;;;;;;;53.47;28.80;;;;;;;;;;4949970;28;20071;-88
2022/03/26 13:24:56;;;;;;;44.92;27.58;;;;;;;;;;4952573;28;20436;-88
2022/03/26 13:27:23;;;;;;;47.17;27.73;;;;;;;;;;4953840;28;20047;-90
2022/03/26 13:29:50;;;;;;;47.08;29.08;;;;;;;;;;4953815;28;20043;-90
2022/03/26 13:32:16;;;;;;;49.92;29.42;;;;;;;;;;4947564;28;20043;-90
2022/03/26 13:34:47;;;;;;;44.33;26.90;;;;;;;;;;4951073;28;20085;-89
2022/03/26 13:37:17;;;;;;;39.25;26.13;;;;;;;;;;4950061;28;20078;-89
2022/03/26 13:39:56;;;;;;;43.63;25.73;;;;;;;;;;4947199;28;20043;-90
2022/03/26 13:42:24;;;;;;;41.60;26.05;;;;;;;;;;4949137;28;20054;-89
2022/03/26 13:44:53;;;;;;;40.28;26.05;;;;;;;;;;4948022;28;20075;-88
2022/03/26 13:47:22;;;;;;;43.45;26.58;;;;;;;;;;4948362;28;20141;-87
2022/03/26 13:50:13;;;;;;;41.47;25.50;;;;;;;;;;4944948;28;20059;-91
2022/03/26 13:52:42;;;;;;;39.47;24.55;;;;;;;;;;4948221;28;20187;-91
2022/03/26 13:55:24;;;;;;;38.95;23.73;;;;;;;;;;4948900;28;20043;-89
2022/03/26 13:57:53;;;;;;;41.45;24.73;;;;;;;;;;4950327;28;20047;-90
2022/03/26 14:00:22;;;;;;;35.90;23.55;;;;;;;;;;4947228;28;20047;-92
2022/03/26 14:02:50;;;;;;;40.03;24.20;;;;;;;;;;4951719;28;20069;-90
2022/03/26 14:05:26;;;;;;;33.33;21.95;;;;;;;;;;4951305;28;20516;-92
2022/03/26 14:07:57;;;;;;;37.97;23.55;;;;;;;;;;4952074;28;20058;-93
2022/03/26 14:10:36;;;;;;;49.92;28.00;;;;;;;;;;4951933;28;21187;-92
2022/03/26 14:13:05;;;;;;;;;;;;;;;;;;4950752;28;20051;-92
2022/03/26 14:15:32;;;;;;;42.15;24.95;;;;;;;;;;4950978;28;19972;-91
2022/03/26 14:17:59;;;;;;;38.67;25.25;;;;;;;;;;4949922;28;20055;-91
2022/03/26 14:20:27;;;;;;;41.13;22.58;;;;;;;;;;4950283;28;20110;-93
2022/03/26 14:22:58;;;;;;;36.10;23.40;;;;;;;;;;4947226;28;20527;-90
2022/03/26 14:25:29;;;;;;;34.13;21.80;;;;;;;;;;4955274;28;20082;-90
2022/03/26 14:28:01;;;;;;;33.80;20.63;;;;;;;;;;4949630;28;20102;-90
2022/03/26 14:30:28;;;;;;;31.88;19.73;;;;;;;;;;4951513;28;20047;-91
2022/03/26 14:32:57;;;;;;;31.90;21.05;;;;;;;;;;4951880;28;20051;-91
2022/03/26 14:35:24;;;;;;;32.95;20.50;;;;;;;;;;4951726;28;20047;-94
2022/03/26 14:37:51;;;;;;;34.25;22.00;;;;;;;;;;4947515;28;20512;-92
2022/03/26 14:40:18;;;;;;;36.00;23.25;;;;;;;;;;4949983;28;20051;-90
2022/03/26 14:42:45;;;;;;;38.80;22.42;;;;;;;;;;4951064;28;20118;-91
2022/03/26 14:45:13;;;;;;;37.43;22.60;;;;;;;;;;4949792;28;20672;-92
2022/03/26 14:47:39;;;;;;;36.28;22.92;;;;;;;;;;4952610;28;20047;-94
2022/03/26 14:50:07;;;;;;;34.42;21.92;;;;;;;;;;4951514;28;20110;-92
2022/03/26 14:52:36;;;;;;;35.17;21.40;;;;;;;;;;4949588;28;20055;-93
2022/03/26 14:55:03;;;;;;;37.65;21.88;;;;;;;;;;4951791;28;20106;-94
2022/03/26 14:57:29;;;;;;;32.60;20.90;;;;;;;;;;4953491;28;20661;-94
2022/03/26 14:59:56;;;;;;;32.83;20.67;;;;;;;;;;4948741;28;20051;-93
2022/03/26 15:02:22;;;;;;;35.47;21.90;;;;;;;;;;4950686;28;20071;-94
2022/03/26 15:04:49;;;;;;;33.00;19.60;;;;;;;;;;4959610;28;20059;-94
2022/03/26 15:07:16;;;;;;;30.83;19.35;;;;;;;;;;4951279;28;20087;-94
2022/03/26 15:09:42;;;;;;;28.70;18.02;;;;;;;;;;4956022;28;20114;-95
2022/03/26 15:12:15;;;;;;;29.35;18.83;;;;;;;;;;4952415;28;20051;-93
2022/03/26 15:14:42;;;;;;;28.45;19.42;;;;;;;;;;4950055;28;20465;-92
2022/03/26 15:17:09;;;;;;;33.35;19.95;;;;;;;;;;4945693;28;20805;-91
2022/03/26 15:19:35;;;;;;;30.55;18.38;;;;;;;;;;4948580;28;20083;-96
2022/03/26 15:22:02;;;;;;;29.10;19.23;;;;;;;;;;4953699;28;20106;-95
2022/03/26 15:24:32;;;;;;;30.85;18.35;;;;;;;;;;4952397;28;20047;-94
2022/03/26 15:26:59;;;;;;;26.55;17.67;;;;;;;;;;4955580;28;20051;-96
2022/03/26 15:29:31;;;;;;;29.33;17.83;;;;;;;;;;4964393;28;20534;-94
2022/03/26 15:31:58;;;;;;;27.27;17.23;;;;;;;;;;4956956;28;20648;-93
2022/03/26 15:34:24;;;;;;;34.40;17.77;;;;;;;;;;4947515;28;20047;-92
2022/03/26 15:36:51;;;;;;;29.10;19.20;;;;;;;;;;4946450;28;20066;-95
2022/03/26 15:39:18;;;;;;;29.33;18.40;;;;;;;;;;4945772;28;20098;-92
2022/03/26 15:41:44;;;;;;;28.75;18.88;;;;;;;;;;4945441;28;20078;-92
2022/03/26 15:44:11;;;;;;;34.08;20.48;;;;;;;;;;4954376;28;20513;-94
2022/03/26 15:46:38;;;;;;;30.25;19.42;;;;;;;;;;4954984;28;20074;-94
2022/03/26 15:49:04;;;;;;;32.47;18.08;;;;;;;;;;4950188;28;20432;-85
2022/03/26 15:51:32;;;;;;;26.20;17.70;;;;;;;;;;4940588;28;20083;-94
2022/03/26 15:53:58;;;;;;;29.42;19.85;;;;;;;;;;4945849;28;20089;-92
2022/03/26 15:56:25;;;;;;;31.85;19.48;;;;;;;;;;4936997;28;20480;-93
2022/03/26 15:58:54;;;;;;;22.13;16.77;;;;;;;;;;4942236;28;20082;-93
2022/03/26 16:01:20;;;;;;;28.48;18.92;;;;;;;;;;4945664;28;20279;-92
2022/03/26 16:03:47;;;;;;;29.77;18.70;;;;;;;;;;4943408;28;20061;-91
2022/03/26 16:06:14;;;;;;;24.42;16.25;;;;;;;;;;4946100;28;20055;-92
2022/03/26 16:08:41;;;;;;;31.13;17.55;;;;;;;;;;4946942;28;20051;-92
2022/03/26 16:11:07;;;;;;;25.55;17.92;;;;;;;;;;4947122;28;20075;-94
2022/03/26 16:13:34;;;;;;;26.08;16.70;;;;;;;;;;4948287;28;20053;-93
2022/03/26 16:16:00;;;;;;;28.55;18.48;;;;;;;;;;4944431;28;20110;-93
2022/03/26 16:18:27;;;;;;;29.90;18.40;;;;;;;;;;4946847;28;20051;-93
2022/03/26 16:20:55;;;;;;;26.00;19.05;;;;;;;;;;4946867;28;20050;-92
2022/03/26 16:23:22;;;;;;;31.02;18.23;;;;;;;;;;4951561;28;20051;-93
2022/03/26 16:25:49;;;;;;;30.92;17.75;;;;;;;;;;4954584;28;20075;-94
2022/03/26 16:28:15;;;;;;;25.02;17.38;;;;;;;;;;4953006;28;20070;-92
2022/03/26 16:30:42;;;;;;;31.63;18.95;;;;;;;;;;4945599;28;20114;-92
2022/03/26 16:33:09;;;;;;;25.90;18.98;;;;;;;;;;4944068;28;20059;-89
2022/03/26 16:35:35;;;;;;;29.83;19.52;;;;;;;;;;4951923;28;20055;-93
2022/03/26 16:38:02;;;;;;;25.95;18.27;;;;;;;;;;4949946;28;20102;-93
2022/03/26 16:40:29;;;;;;;27.73;18.77;;;;;;;;;;4951440;28;20102;-92
2022/03/26 16:43:01;;;;;;;28.10;17.63;;;;;;;;;;4950479;28;20075;-93
2022/03/26 16:45:32;;;;;;;26.23;17.40;;;;;;;;;;4946795;28;20135;-91
2022/03/26 16:48:00;;;;;;;31.48;19.50;;;;;;;;;;4949115;28;20070;-94
2022/03/26 16:50:30;;;;;;;27.05;17.98;;;;;;;;;;4950541;28;20499;-93
2022/03/26 16:52:57;;;;;;;27.90;17.40;;;;;;;;;;4949686;28;20102;-91
2022/03/26 16:55:23;;;;;;;31.75;17.13;;;;;;;;;;4952481;28;20085;-92
2022/03/26 16:57:50;;;;;;;30.38;19.98;;;;;;;;;;4950781;28;20047;-93
2022/03/26 17:00:17;;;;;;;32.55;20.65;;;;;;;;;;4948513;28;20079;-94
2022/03/26 17:02:44;;;;;;;29.73;19.38;;;;;;;;;;4948780;28;20087;-93
2022/03/26 17:05:11;;;;;;;29.13;19.10;;;;;;;;;;4947681;28;20077;-91
2022/03/26 17:07:38;;;;;;;32.90;19.58;;;;;;;;;;4952641;28;20074;-90
2022/03/26 17:10:07;;;;;;;33.60;19.98;;;;;;;;;;4952965;28;20082;-92
2022/03/26 17:12:34;;;;;;;38.53;22.20;;;;;;;;;;4951413;28;20074;-91
2022/03/26 17:15:00;;;;;;;30.38;20.05;;;;;;;;;;4951983;28;20043;-93
2022/03/26 17:17:27;;;;;;;35.88;21.42;;;;;;;;;;4951622;28;20416;-94
2022/03/26 17:19:54;;;;;;;48.17;21.20;;;;;;;;;;4949944;28;20055;-93
2022/03/26 17:22:20;;;;;;;33.55;20.92;;;;;;;;;;4949207;28;20074;-92
2022/03/26 17:24:47;;;;;;;37.90;21.88;;;;;;;;;;4953241;28;20417;-93
2022/03/26 17:27:14;;;;;;;47.25;26.67;;;;;;;;;;4951340;28;20063;-93
2022/03/26 17:29:41;;;;;;;50.80;27.67;;;;;;;;;;4951214;28;20054;-92
2022/03/26 17:32:07;;;;;;;63.20;33.25;;;;;;;;;;4950777;28;20500;-93
2022/03/26 17:34:34;;;;;;;57.55;34.15;;;;;;;;;;4952496;28;20051;-95
2022/03/26 17:37:01;;;;;;;60.72;34.08;;;;;;;;;;4951884;28;20078;-93
2022/03/26 17:39:28;;;;;;;59.70;34.85;;;;;;;;;;4955762;28;20125;-93
2022/03/26 17:41:55;;;;;;;62.17;35.22;;;;;;;;;;4948710;28;20074;-94
2022/03/26 17:44:21;;;;;;;62.00;36.28;;;;;;;;;;4952202;28;20071;-94
2022/03/26 17:46:49;;;;;;;68.85;36.42;;;;;;;;;;4955168;28;20121;-95
2022/03/26 17:49:16;;;;;;;64.95;35.83;;;;;;;;;;4953044;28;20062;-95
2022/03/26 17:51:43;;;;;;;67.25;37.47;;;;;;;;;;4950215;28;20728;-95
2022/03/26 17:54:09;;;;;;;67.15;37.35;;;;;;;;;;4947827;28;20078;-93
2022/03/26 17:56:37;;;;;;;67.70;37.80;;;;;;;;;;4950042;28;20047;-92
2022/03/26 17:59:05;;;;;;;72.20;37.83;;;;;;;;;;4950912;28;20035;-92
2022/03/26 18:01:32;;;;;;;70.10;36.63;;;;;;;;;;4950055;28;20039;-90
2022/03/26 18:03:59;;;;;;;72.82;38.35;;;;;;;;;;4951704;28;20083;-91
2022/03/26 18:06:26;;;;;;;73.28;38.33;;;;;;;;;;4949279;28;20443;-90
2022/03/26 18:08:52;;;;;;;74.80;38.20;;;;;;;;;;4941899;28;20094;-91
2022/03/26 18:11:19;;;;;;;74.35;38.92;;;;;;;;;;4962199;28;20051;-93
2022/03/26 18:13:45;;;;;;;77.93;39.58;;;;;;;;;;4953307;28;20043;-92
2022/03/26 18:16:12;;;;;;;70.25;38.78;;;;;;;;;;4951731;28;20094;-90
2022/03/26 18:18:39;;;;;;;75.72;40.55;;;;;;;;;;4952104;28;20055;-91
2022/03/26 18:21:05;;;;;;;80.95;40.17;;;;;;;;;;4951940;28;20078;-92
2022/03/26 18:23:32;;;;;;;78.70;41.28;;;;;;;;;;4951722;28;20070;-90
2022/03/26 18:25:59;;;;;;;79.10;42.83;;;;;;;;;;4952993;28;20114;-91
2022/03/26 18:28:25;;;;;;;81.95;44.05;;;;;;;;;;4951335;28;20079;-91
2022/03/26 18:30:52;;;;;;;86.43;46.10;;;;;;;;;;4954789;28;20051;-91
2022/03/26 18:33:19;;;;;;;84.53;46.55;;;;;;;;;;4950670;28;20614;-93
2022/03/26 18:35:45;;;;;;;84.82;48.10;;;;;;;;;;4954271;28;20071;-92
2022/03/26 18:38:12;;;;;;;89.78;47.35;;;;;;;;;;4956018;28;20047;-93
2022/03/26 18:40:38;;;;;;;89.35;48.17;;;;;;;;;;4957314;28;20047;-94
2022/03/26 18:43:05;;;;;;;91.35;48.67;;;;;;;;;;4951937;28;20435;-93
2022/03/26 18:45:31;;;;;;;84.60;48.45;;;;;;;;;;4948954;28;20055;-95
2022/03/26 18:47:58;;;;;;;97.05;48.75;;;;;;;;;;4953952;28;20063;-93
2022/03/26 18:50:25;;;;;;;99.35;50.65;;;;;;;;;;4953082;28;20082;-94
2022/03/26 18:52:51;;;;;;;97.07;51.10;;;;;;;;;;4957074;28;20109;-92
2022/03/26 18:55:18;;;;;;;92.38;50.25;;;;;;;;;;4952868;28;20051;-94
2022/03/26 18:57:44;;;;;;;96.20;50.88;;;;;;;;;;4953348;28;20051;-94
2022/03/26 19:02:57;;;;;;;101.05;50.75;;;;;;;;;;4951734;28;20044;-93
2022/03/26 19:05:24;;;;;;;91.88;50.38;;;;;;;;;;4954343;28;20047;-91
2022/03/26 19:07:50;;;;;;;99.00;52.55;;;;;;;;;;4952698;28;20047;-93
2022/03/26 19:10:17;;;;;;;101.00;52.63;;;;;;;;;;4950686;28;20098;-93
2022/03/26 19:12:44;;;;;;;102.80;51.10;;;;;;;;;;4952491;28;20054;-93
2022/03/26 19:15:12;;;;;;;105.25;51.38;;;;;;;;;;4957918;28;20070;-92
2022/03/26 19:17:42;;;;;;;95.28;53.13;;;;;;;;;;4952066;28;20055;-91
2022/03/26 19:20:10;;;;;;;96.53;51.45;;;;;;;;;;4945861;28;20082;-93
2022/03/26 19:22:37;;;;;;;97.40;52.55;;;;;;;;;;4955832;28;20055;-91
2022/03/26 19:25:05;;;;;;;100.68;52.70;;;;;;;;;;4952051;28;20062;-87
2022/03/26 19:27:31;;;;;;;97.50;50.33;;;;;;;;;;4949754;28;20055;-90
2022/03/26 19:29:59;;;;;;;92.75;50.05;;;;;;;;;;4950240;28;20051;-89
2022/03/26 19:32:26;;;;;;;100.00;52.90;;;;;;;;;;4950068;28;20578;-91
2022/03/26 19:34:52;;;;;;;102.60;52.78;;;;;;;;;;4948933;28;20055;-90
2022/03/26 19:37:19;;;;;;;105.28;53.78;;;;;;;;;;4949300;28;20249;-90
2022/03/26 19:39:46;;;;;;;98.07;52.78;;;;;;;;;;4950795;28;20520;-91
2022/03/26 19:42:14;;;;;;;101.03;52.80;;;;;;;;;;4948844;28;20055;-91
2022/03/26 19:44:42;;;;;;;99.68;53.55;;;;;;;;;;4951050;28;20087;-93
2022/03/26 19:47:09;;;;;;;102.88;53.45;;;;;;;;;;4949555;28;20055;-90
2022/03/26 19:49:35;;;;;;;104.70;54.35;;;;;;;;;;4951041;28;20165;-91
2022/03/26 19:52:02;;;;;;;107.10;55.75;;;;;;;;;;4949518;28;20094;-91
2022/03/26 19:54:29;;;;;;;107.90;55.25;;;;;;;;;;4949316;28;20520;-92
2022/03/26 19:56:55;;;;;;;98.00;54.58;;;;;;;;;;4953193;28;20043;-92
2022/03/26 19:59:22;;;;;;;106.63;56.00;;;;;;;;;;4952978;28;20043;-91
2022/03/26 20:01:48;;;;;;;106.22;56.63;;;;;;;;;;4954448;28;20063;-90
2022/03/26 20:04:16;;;;;;;111.13;58.58;;;;;;;;;;4954484;28;20562;-91
2022/03/26 20:06:44;;;;;;;109.20;58.53;;;;;;;;;;4949793;28;20150;-93
2022/03/26 20:09:11;;;;;;;104.47;56.97;;;;;;;;;;4954292;28;20039;-92
2022/03/26 20:11:41;;;;;;;111.93;59.30;;;;;;;;;;4953170;28;20059;-93
2022/03/26 20:14:09;;;;;;;112.15;59.33;;;;;;;;;;4953075;28;20088;-91
2022/03/26 20:19:21;;;;;;;107.22;58.42;;;;;;;;;;4950483;28;20051;-89
2022/03/26 20:21:48;;;;;;;109.68;60.53;;;;;;;;;;4950879;28;20055;-91
2022/03/26 20:24:17;;;;;;;113.45;59.10;;;;;;;;;;4951492;28;20055;-91
2022/03/26 20:27:03;;;;;;;110.73;61.50;;;;;;;;;;4953438;28;20057;-91
2022/03/26 20:29:30;;;;;;;112.03;62.60;;;;;;;;;;4953356;28;20287;-90
2022/03/26 20:31:57;;;;;;;116.03;62.42;;;;;;;;;;4954478;28;20051;-90
2022/03/26 20:34:23;;;;;;;115.80;61.35;;;;;;;;;;4954645;28;20047;-90
2022/03/26 20:36:50;;;;;;;121.32;63.03;;;;;;;;;;4952249;28;20078;-91
2022/03/26 20:39:21;;;;;;;119.00;62.92;;;;;;;;;;4952318;28;20071;-90
2022/03/26 20:41:48;;;;;;;119.07;63.25;;;;;;;;;;4953756;28;20055;-90
2022/03/26 20:44:15;;;;;;;108.45;60.75;;;;;;;;;;4952046;28;20054;-90
2022/03/26 20:46:42;;;;;;;116.35;59.45;;;;;;;;;;4943331;28;20516;-89
2022/03/26 20:49:09;;;;;;;113.25;61.25;;;;;;;;;;4947520;28;20055;-89
2022/03/26 20:51:36;;;;;;;115.93;62.15;;;;;;;;;;4944028;28;20063;-89
2022/03/26 20:54:03;;;;;;;115.45;62.13;;;;;;;;;;4943352;28;20051;-89
2022/03/26 20:56:30;;;;;;;115.38;62.38;;;;;;;;;;4943744;28;20047;-91
2022/03/26 20:58:56;;;;;;;114.15;60.97;;;;;;;;;;4944535;28;20480;-90
2022/03/26 21:01:23;;;;;;;115.22;60.10;;;;;;;;;;4949894;28;20083;-89
2022/03/26 21:03:50;;;;;;;106.30;60.53;;;;;;;;;;4952255;28;20724;-90
2022/03/26 21:06:17;;;;;;;119.25;60.95;;;;;;;;;;4950560;28;20070;-92
2022/03/26 21:08:43;;;;;;;113.95;61.35;;;;;;;;;;4954018;28;20085;-90
2022/03/26 21:11:10;;;;;;;113.32;59.00;;;;;;;;;;4955846;28;20075;-90
2022/03/26 21:13:37;;;;;;;115.60;59.20;;;;;;;;;;4956479;28;20085;-91
2022/03/26 21:16:05;;;;;;;111.88;60.08;;;;;;;;;;4951962;28;20082;-91
2022/03/26 21:18:32;;;;;;;114.30;58.47;;;;;;;;;;4948612;28;20500;-90
2022/03/26 21:20:59;;;;;;;113.20;59.03;;;;;;;;;;4950813;28;20102;-90
2022/03/26 21:23:25;;;;;;;114.47;61.13;;;;;;;;;;4945530;28;20143;-91
2022/03/26 21:25:58;;;;;;;115.43;60.03;;;;;;;;;;4944188;28;20051;-90
2022/03/26 21:28:26;;;;;;;112.18;61.17;;;;;;;;;;4942687;28;20043;-89
2022/03/26 21:30:53;;;;;;;110.25;57.30;;;;;;;;;;4952257;28;20074;-90
2022/03/26 21:33:21;;;;;;;116.25;58.92;;;;;;;;;;4952059;28;20043;-91
2022/03/26 21:35:48;;;;;;;111.45;59.15;;;;;;;;;;4951874;28;20529;-90